Time;durP1;ratioP1;P1;durP2;ratioP2;P2;SDS_P1;SDS_P2;PMS_P1;PMS_P2;Temp;Humidity;BMP_temperature;BMP_pressure;BME280_temperature;BME280_humidity;BME280_pressure;Samples;Min_cycle;Max_cycle;Signal;HPM_P1;HPM_P2
2023/01/29 00:01:56;;;;;;;28.27;11.50;;;;;;;3.90;87.24;100226.09;5090078;28;20032;-28
2023/01/29 00:04:21;;;;;;;20.83;10.45;;;;;;;3.76;87.99;100216.25;5089926;28;20028;-31
2023/01/29 00:06:47;;;;;;;21.55;9.90;;;;;;;3.77;87.81;100220.53;5089921;28;20031;-29
2023/01/29 00:09:13;;;;;;;16.35;9.10;;;;;;;3.71;88.43;100232.59;5082706;28;20028;-31
2023/01/29 00:11:39;;;;;;;18.75;10.25;;;;;;;3.73;88.05;100235.88;5053098;28;20411;-31
2023/01/29 00:14:05;;;;;;;17.27;10.25;;;;;;;3.55;87.78;100204.44;5068671;28;20400;-30
2023/01/29 00:16:31;;;;;;;16.13;9.23;;;;;;;3.60;90.23;100236.41;5068937;28;20032;-29
2023/01/29 00:18:56;;;;;;;18.50;9.43;;;;;;;3.44;90.09;100240.91;5067770;28;20039;-31
2023/01/29 00:21:22;;;;;;;14.68;8.00;;;;;;;3.56;90.37;100243.03;5068369;28;20033;-29
2023/01/29 00:23:49;;;;;;;14.15;8.48;;;;;;;3.58;90.55;100233.13;5050162;28;20081;-29
2023/01/29 00:26:15;;;;;;;15.38;9.10;;;;;;;3.55;89.58;100238.72;5050648;28;20119;-32
2023/01/29 00:28:40;;;;;;;15.63;9.30;;;;;;;3.41;91.73;100227.09;5068492;28;20111;-29
2023/01/29 00:31:12;;;;;;;15.45;9.07;;;;;;;3.50;91.68;100240.25;5069379;28;20031;-29
2023/01/29 00:33:38;;;;;;;14.52;8.82;;;;;;;3.14;91.46;100215.06;5050486;28;20063;-29
2023/01/29 00:36:09;;;;;;;16.23;9.63;;;;;;;3.38;91.68;100247.69;5068282;28;20511;-30
2023/01/29 00:38:35;;;;;;;16.95;9.10;;;;;;;2.92;93.83;100231.56;5066925;28;20523;-30
2023/01/29 00:46:42;;;;;;;16.05;9.07;;;;;;;3.00;95.85;100256.13;5069093;28;20035;-28
2023/01/29 00:49:08;;;;;;;18.73;10.35;;;;;;;3.04;94.98;100253.94;5073419;28;20036;-28
2023/01/29 00:51:34;;;;;;;18.50;8.65;;;;;;;2.92;95.66;100257.91;5068880;28;20033;-28
2023/01/29 00:53:59;;;;;;;19.42;10.13;;;;;;;2.88;96.46;100251.31;5084232;28;20403;-29
2023/01/29 00:56:26;;;;;;;19.15;9.93;;;;;;;2.66;96.20;100253.63;5089120;28;20040;-29
2023/01/29 00:58:51;;;;;;;19.52;10.48;;;;;;;2.62;97.03;100236.50;5088913;28;20403;-29
2023/01/29 01:03:04;;;;;;;20.92;11.02;;;;;;;2.89;95.82;100255.63;5088782;28;20111;-30
2023/01/29 01:04:03;;;;;;;19.48;10.27;;;;;;;2.95;95.92;100249.69;5088602;28;20103;-30
2023/01/29 01:06:28;;;;;;;18.45;9.23;;;;;;;2.88;95.88;100231.09;5089198;28;20533;-30
2023/01/29 01:11:37;;;;;;;23.00;10.65;;;;;;;2.98;95.37;100254.63;5069606;28;20531;-30
2023/01/29 01:14:03;;;;;;;22.83;10.73;;;;;;;2.71;95.05;100224.97;5088454;28;20118;-29
2023/01/29 01:16:28;;;;;;;25.10;11.60;;;;;;;3.06;94.79;100265.16;5069960;28;20032;-30
2023/01/29 01:18:53;;;;;;;21.33;10.57;;;;;;;3.10;94.38;100261.19;5070534;28;20542;-29
2023/01/29 01:21:19;;;;;;;20.67;11.10;;;;;;;3.26;93.83;100264.81;5070058;28;20498;-31
2023/01/29 01:23:44;;;;;;;23.08;10.68;;;;;;;3.26;92.89;100275.38;5070211;28;20020;-31
2023/01/29 01:26:10;;;;;;;21.83;11.68;;;;;;;3.21;94.32;100262.69;5088469;28;20050;-30
2023/01/29 01:28:36;;;;;;;23.45;11.27;;;;;;;3.26;94.59;100272.72;5088019;28;20119;-30
2023/01/29 01:31:12;;;;;;;21.38;10.98;;;;;;;3.30;95.28;100281.97;5073669;28;20522;-29
2023/01/29 01:33:39;;;;;;;20.05;10.90;;;;;;;3.15;95.34;100253.63;5073881;28;20066;-33
2023/01/29 01:36:08;;;;;;;20.70;11.25;;;;;;;3.11;95.67;100243.59;5090711;28;20032;-30
2023/01/29 01:38:43;;;;;;;31.48;12.88;;;;;;;3.40;95.79;100282.59;5092134;28;20031;-29
2023/01/29 01:41:15;;;;;;;35.25;14.13;;;;;;;3.47;94.37;100283.56;5088761;28;20098;-30
2023/01/29 01:43:54;;;;;;;26.35;12.38;;;;;;;3.46;94.33;100276.66;5080851;28;20040;-30
2023/01/29 01:46:20;;;;;;;20.90;10.68;;;;;;;3.49;93.00;100283.41;5072308;28;20162;-29
2023/01/29 01:48:50;;;;;;;21.85;10.80;;;;;;;3.41;92.86;100281.59;5071718;28;20056;-29
2023/01/29 01:51:16;;;;;;;19.88;10.90;;;;;;;3.45;92.24;100284.72;5071707;28;20472;-30
2023/01/29 01:53:54;;;;;;;21.67;10.52;;;;;;;3.34;91.82;100288.53;5072104;28;20023;-29
2023/01/29 01:56:37;;;;;;;20.38;10.50;;;;;;;3.29;92.51;100269.75;5071797;28;20425;-28
2023/01/29 01:59:06;;;;;;;20.60;10.77;;;;;;;3.37;92.63;100277.66;5071996;28;20032;-31
2023/01/29 02:01:32;;;;;;;20.73;10.00;;;;;;;3.45;92.82;100290.81;5071936;28;20074;-28
2023/01/29 02:09:46;;;;;;;16.40;9.65;;;;;;;3.78;91.65;100291.59;5071474;28;20035;-31
2023/01/29 02:12:13;;;;;;;17.30;10.45;;;;;;;3.63;92.79;100280.09;5063069;28;20032;-30
2023/01/29 02:14:41;;;;;;;17.73;9.57;;;;;;;3.61;92.91;100296.06;5089929;28;20558;-31
2023/01/29 02:17:10;;;;;;;16.37;9.37;;;;;;;3.69;93.61;100291.78;5071004;28;20036;-29
2023/01/29 02:20:00;;;;;;;18.90;10.60;;;;;;;3.94;92.53;100303.94;5069376;28;20498;-29
2023/01/29 02:22:58;;;;;;;20.00;10.60;;;;;;;3.81;93.88;100306.25;5069750;28;20115;-30
2023/01/29 02:25:35;;;;;;;18.35;9.88;;;;;;;3.68;93.96;100305.94;5070639;28;20029;-34
2023/01/29 02:28:20;;;;;;;18.23;9.85;;;;;;;3.68;94.94;100305.94;5070990;28;20727;-29
2023/01/29 02:31:13;;;;;;;19.05;10.70;;;;;;;3.52;96.54;100306.81;5052918;28;20089;-32
2023/01/29 02:33:54;;;;;;;19.50;11.00;;;;;;;3.55;95.39;100306.47;5070624;28;20028;-34
2023/01/29 02:36:34;;;;;;;18.08;10.20;;;;;;;3.49;95.13;100304.50;5052330;28;20538;-31
2023/01/29 02:39:14;;;;;;;15.75;9.45;;;;;;;3.61;94.57;100317.16;5073442;28;20196;-29
2023/01/29 02:41:46;;;;;;;16.98;9.93;;;;;;;3.70;93.53;100309.25;5078445;28;20032;-29
2023/01/29 02:44:12;;;;;;;14.82;9.30;;;;;;;3.92;92.99;100316.44;5070440;28;20056;-32
2023/01/29 02:47:02;;;;;;;16.25;9.75;;;;;;;3.78;92.96;100311.84;5070844;28;20032;-30
2023/01/29 02:49:47;;;;;;;15.95;9.35;;;;;;;3.60;93.44;100290.97;5053045;28;20033;-30
2023/01/29 02:52:30;;;;;;;16.70;9.95;;;;;;;3.71;94.06;100310.91;5071083;28;20499;-30
2023/01/29 02:55:22;;;;;;;18.35;10.88;;;;;;;3.62;95.64;100318.84;5071192;28;20035;-29
2023/01/29 02:57:51;;;;;;;20.55;11.95;;;;;;;3.84;94.86;100327.00;5034444;28;20041;-29
2023/01/29 03:00:25;;;;;;;20.13;12.23;;;;;;;3.80;95.81;100305.44;5070819;28;20046;-28
2023/01/29 03:02:58;;;;;;;19.77;12.15;;;;;;;3.69;97.86;100323.44;5069337;28;20116;-28
2023/01/29 03:05:57;;;;;;;20.70;12.40;;;;;;;3.76;97.30;100325.25;5070741;28;20044;-28
2023/01/29 03:08:44;;;;;;;19.98;12.32;;;;;;;3.56;97.88;100324.78;5070234;28;20058;-30
2023/01/29 03:11:14;;;;;;;20.10;12.18;;;;;;;3.58;98.27;100328.06;5070158;28;20028;-29
2023/01/29 03:13:50;;;;;;;22.45;12.57;;;;;;;3.55;97.79;100312.56;5075115;28;20079;-29
2023/01/29 03:16:18;;;;;;;18.60;11.18;;;;;;;3.69;97.98;100340.06;5090074;28;20078;-31
2023/01/29 03:18:51;;;;;;;20.00;11.23;;;;;;;3.66;96.50;100324.59;5072039;28;20424;-29
2023/01/29 03:32:31;;;;;;;20.75;10.75;;;;;;;3.60;97.82;100341.91;5089990;28;20043;-29
2023/01/29 03:35:02;;;;;;;17.58;10.25;;;;;;;3.59;97.12;100334.97;5089881;28;20495;-30
2023/01/29 03:37:42;;;;;;;16.42;9.65;;;;;;;3.65;96.51;100353.78;5082957;28;20068;-29
2023/01/29 03:40:09;;;;;;;17.88;10.43;;;;;;;3.70;97.49;100354.94;5072959;28;20109;-30
2023/01/29 03:42:49;;;;;;;18.80;10.25;;;;;;;3.65;98.06;100364.31;5067827;28;20028;-30
2023/01/29 03:45:24;;;;;;;16.85;10.18;;;;;;;3.54;98.56;100358.41;5067873;28;20038;-29
2023/01/29 03:47:59;;;;;;;19.77;10.38;;;;;;;3.61;99.15;100358.56;5052065;28;20499;-29
2023/01/29 03:50:32;;;;;;;18.25;11.25;;;;;;;3.69;99.17;100360.34;5068359;28;20032;-30
2023/01/29 03:53:15;;;;;;;17.48;9.82;;;;;;;3.59;99.94;100365.81;5069585;28;20515;-28
2023/01/29 03:56:01;;;;;;;18.20;10.32;;;;;;;3.52;99.79;100355.09;5069607;28;20028;-29
2023/01/29 03:58:29;;;;;;;17.15;9.85;;;;;;;3.58;100.00;100359.72;5069781;28;20036;-31
2023/01/29 04:00:57;;;;;;;;;;;;;;;3.36;100.00;100365.66;5069877;28;20451;-30
2023/01/29 04:03:32;;;;;;;19.20;10.48;;;;;;;3.30;100.00;100366.31;5069535;28;19927;-30
2023/01/29 04:06:11;;;;;;;19.13;11.35;;;;;;;3.25;100.00;100371.22;5069965;28;20077;-29
2023/01/29 04:08:46;;;;;;;19.95;12.43;;;;;;;3.20;100.00;100340.91;5069471;28;20111;-28
2023/01/29 04:11:16;;;;;;;21.73;13.73;;;;;;;3.32;100.00;100364.34;5069316;28;20031;-27
2023/01/29 04:13:42;;;;;;;21.38;12.30;;;;;;;3.45;100.00;100375.19;5082100;28;20032;-29
2023/01/29 04:16:13;;;;;;;21.40;11.35;;;;;;;3.28;100.00;100379.63;5064585;28;20033;-30
2023/01/29 04:18:38;;;;;;;26.02;14.48;;;;;;;3.37;100.00;100368.13;5067416;28;20028;-30
2023/01/29 04:21:06;;;;;;;23.13;14.93;;;;;;;3.15;100.00;100356.41;5068595;28;20032;-29
2023/01/29 04:23:32;;;;;;;23.42;13.15;;;;;;;3.44;100.00;100383.28;5067399;28;20035;-27
2023/01/29 04:25:57;;;;;;;30.13;16.60;;;;;;;3.61;100.00;100383.09;5068958;28;20024;-32
2023/01/29 04:28:32;;;;;;;32.50;18.17;;;;;;;3.47;100.00;100351.31;5068407;28;20059;-30
2023/01/29 04:31:01;;;;;;;33.13;16.38;;;;;;;3.54;100.00;100384.75;5069061;28;20104;-31
2023/01/29 04:33:45;;;;;;;28.25;15.85;;;;;;;3.56;100.00;100393.34;5050290;28;20416;-30
2023/01/29 04:36:35;;;;;;;30.42;16.65;;;;;;;3.59;100.00;100387.72;5060204;28;20460;-29
2023/01/29 04:39:59;;;;;;;30.52;16.08;;;;;;;3.37;100.00;100393.66;5088814;28;20032;-31
2023/01/29 04:42:53;;;;;;;28.40;15.68;;;;;;;3.21;100.00;100386.56;5046618;28;20130;-29
2023/01/29 04:45:27;;;;;;;30.83;15.43;;;;;;;3.02;100.00;100382.41;5069589;28;20028;-30
2023/01/29 04:48:20;;;;;;;25.23;14.45;;;;;;;3.16;100.00;100402.84;5088547;28;20028;-33
2023/01/29 04:50:57;;;;;;;33.38;18.23;;;;;;;3.28;100.00;100381.47;5070330;28;20024;-31
2023/01/29 04:53:51;;;;;;;37.80;18.38;;;;;;;3.39;100.00;100407.50;5088680;28;20044;-28
2023/01/29 04:56:39;;;;;;;20.08;11.38;;;;;;;3.39;100.00;100370.56;5089237;28;20035;-28
2023/01/29 04:59:08;;;;;;;29.63;15.60;;;;;;;3.37;100.00;100409.47;5070844;28;20024;-31
2023/01/29 05:01:36;;;;;;;54.85;25.48;;;;;;;3.27;100.00;100409.63;5088631;28;20043;-29
2023/01/29 05:04:08;;;;;;;36.83;18.70;;;;;;;3.27;100.00;100408.78;5088914;28;20028;-28
2023/01/29 05:06:35;;;;;;;41.65;20.65;;;;;;;3.43;100.00;100403.53;5070699;28;20040;-29
2023/01/29 05:09:01;;;;;;;26.77;15.47;;;;;;;3.09;100.00;100396.59;5089100;28;20502;-31
2023/01/29 05:11:31;;;;;;;28.63;15.07;;;;;;;3.17;100.00;100424.78;5088866;28;20055;-28
2023/01/29 05:13:57;;;;;;;20.38;12.85;;;;;;;3.01;100.00;100394.75;5082072;28;20028;-33
2023/01/29 05:16:27;;;;;;;29.85;19.50;;;;;;;3.01;100.00;100401.84;5074900;28;20055;-29
2023/01/29 05:18:52;;;;;;;22.20;12.25;;;;;;;2.87;100.00;100376.13;5050248;28;20067;-30
2023/01/29 05:21:19;;;;;;;49.47;26.52;;;;;;;3.19;100.00;100422.81;5067838;28;20064;-29
2023/01/29 05:23:56;;;;;;;22.17;12.35;;;;;;;3.00;100.00;100416.00;5068067;28;20067;-29
2023/01/29 05:29:06;;;;;;;20.75;11.43;;;;;;;3.26;100.00;100422.97;5073135;28;20101;-30
2023/01/29 05:31:31;;;;;;;20.45;11.93;;;;;;;3.06;100.00;100407.44;5074477;28;20036;-31
2023/01/29 05:33:57;;;;;;;23.98;13.98;;;;;;;3.17;100.00;100415.06;5077040;28;20028;-30
2023/01/29 05:36:24;;;;;;;20.95;11.48;;;;;;;3.38;100.00;100432.22;5069750;28;20060;-30
2023/01/29 05:38:49;;;;;;;16.83;10.13;;;;;;;3.18;100.00;100416.69;5061339;28;20118;-30
2023/01/29 05:41:16;;;;;;;28.30;14.07;;;;;;;3.38;100.00;100419.03;5067765;28;20032;-30
2023/01/29 05:43:41;;;;;;;45.83;25.60;;;;;;;3.47;100.00;100441.78;5067986;28;20017;-32
2023/01/29 05:46:07;;;;;;;30.75;17.63;;;;;;;3.34;100.00;100444.06;5067864;28;20028;-28
2023/01/29 05:48:32;;;;;;;31.75;18.35;;;;;;;3.34;100.00;100446.72;5068360;28;20025;-33
2023/01/29 05:51:02;;;;;;;31.92;17.60;;;;;;;3.37;100.00;100455.13;5068484;28;20033;-29
2023/01/29 05:53:28;;;;;;;24.77;14.32;;;;;;;3.44;100.00;100455.28;5068263;28;20092;-29
2023/01/29 05:55:56;;;;;;;35.10;18.48;;;;;;;3.59;100.00;100451.00;5068079;28;20036;-30
2023/01/29 05:58:22;;;;;;;31.20;14.70;;;;;;;3.70;100.00;100457.78;5068329;28;20085;-29
2023/01/29 06:00:48;;;;;;;21.90;12.07;;;;;;;3.52;100.00;100455.31;5073467;28;20028;-31
2023/01/29 06:03:13;;;;;;;23.23;11.95;;;;;;;3.49;100.00;100450.34;5080939;28;20062;-30
2023/01/29 06:05:39;;;;;;;19.58;10.63;;;;;;;3.56;100.00;100479.53;5080076;28;20165;-28
2023/01/29 06:08:05;;;;;;;23.13;14.35;;;;;;;3.53;100.00;100478.03;5094519;28;20077;-30
2023/01/29 06:10:31;;;;;;;42.13;31.10;;;;;;;3.36;100.00;100455.28;5104539;28;20016;-30
2023/01/29 06:12:56;;;;;;;49.08;28.27;;;;;;;3.49;100.00;100478.53;5088003;28;20032;-29
2023/01/29 06:15:23;;;;;;;31.92;19.10;;;;;;;3.45;100.00;100475.38;5069546;28;20073;-29
2023/01/29 06:17:49;;;;;;;35.50;21.30;;;;;;;3.49;100.00;100484.63;5072129;28;20089;-31
2023/01/29 06:20:14;;;;;;;26.27;15.27;;;;;;;3.52;100.00;100491.41;5091301;28;20122;-35
2023/01/29 06:22:40;;;;;;;25.50;14.00;;;;;;;3.62;100.00;100497.34;5091291;28;20166;-30
2023/01/29 06:25:06;;;;;;;35.50;19.30;;;;;;;3.69;100.00;100500.97;5089848;28;20395;-32
2023/01/29 06:27:31;;;;;;;19.45;12.15;;;;;;;3.67;100.00;100471.31;5084476;28;20097;-30
2023/01/29 06:29:57;;;;;;;20.40;11.18;;;;;;;3.61;100.00;100479.88;5077154;28;20495;-32
2023/01/29 06:32:22;;;;;;;23.48;12.80;;;;;;;3.80;100.00;100497.19;5079718;28;20593;-31
2023/01/29 06:34:48;;;;;;;17.73;9.95;;;;;;;3.75;100.00;100504.78;5070584;28;20476;-31
2023/01/29 06:37:13;;;;;;;17.20;9.73;;;;;;;3.56;100.00;100496.19;5051860;28;20105;-35
2023/01/29 06:39:38;;;;;;;18.85;9.68;;;;;;;3.52;100.00;100481.66;5069310;28;20051;-31
2023/01/29 06:42:04;;;;;;;18.98;10.35;;;;;;;3.60;100.00;100486.16;5070708;28;20024;-31
2023/01/29 06:44:29;;;;;;;18.10;11.57;;;;;;;3.76;100.00;100509.06;5070691;28;20028;-29
2023/01/29 06:46:55;;;;;;;16.55;9.75;;;;;;;3.70;100.00;100515.81;5069007;28;20101;-30
2023/01/29 06:49:20;;;;;;;19.08;10.20;;;;;;;3.64;100.00;100513.84;5051872;28;20496;-31
2023/01/29 06:51:46;;;;;;;18.73;9.27;;;;;;;3.68;100.00;100516.94;5052296;28;20412;-31
2023/01/29 06:54:11;;;;;;;17.83;9.85;;;;;;;3.83;100.00;100517.97;5070719;28;20468;-28
2023/01/29 06:56:37;;;;;;;16.08;8.88;;;;;;;3.73;100.00;100501.47;5071140;28;20511;-29
2023/01/29 06:59:02;;;;;;;16.02;8.48;;;;;;;3.80;100.00;100505.94;5070823;28;20032;-32
2023/01/29 07:01:28;;;;;;;20.13;10.23;;;;;;;3.97;100.00;100533.16;5074799;28;20036;-30
2023/01/29 07:03:53;;;;;;;17.20;9.40;;;;;;;3.71;100.00;100527.19;5088988;28;20498;-30
2023/01/29 07:06:19;;;;;;;16.80;9.07;;;;;;;3.76;100.00;100531.00;5089735;28;20043;-29
2023/01/29 07:08:45;;;;;;;15.05;9.02;;;;;;;3.99;100.00;100525.09;5089609;28;20028;-33
2023/01/29 07:11:10;;;;;;;17.02;8.70;;;;;;;3.83;100.00;100515.34;5071599;28;20027;-29
2023/01/29 07:13:36;;;;;;;16.00;8.82;;;;;;;3.81;100.00;100517.31;5090113;28;20580;-28
2023/01/29 07:16:03;;;;;;;16.67;9.93;;;;;;;3.86;100.00;100515.00;5090532;28;20036;-29
2023/01/29 07:18:29;;;;;;;16.98;9.02;;;;;;;4.05;100.00;100539.44;5075067;28;20067;-28
2023/01/29 07:20:55;;;;;;;16.83;9.10;;;;;;;3.74;100.00;100511.03;5069050;28;20025;-28
2023/01/29 07:23:22;;;;;;;15.43;9.15;;;;;;;4.08;100.00;100515.34;5068858;28;20025;-28
2023/01/29 07:25:50;;;;;;;19.35;13.23;;;;;;;4.19;100.00;100546.69;5070860;28;20541;-29
2023/01/29 07:28:17;;;;;;;16.38;8.52;;;;;;;3.99;100.00;100546.19;5069284;28;20028;-29
2023/01/29 07:30:43;;;;;;;17.58;10.63;;;;;;;4.20;100.00;100548.34;5069886;28;20028;-28
2023/01/29 07:33:09;;;;;;;21.15;11.25;;;;;;;4.09;100.00;100524.94;5070021;28;20032;-30
2023/01/29 07:35:39;;;;;;;18.63;10.27;;;;;;;4.27;100.00;100545.84;5069972;28;20036;-31
2023/01/29 07:38:06;;;;;;;22.67;11.73;;;;;;;4.07;100.00;100500.50;5051796;28;20052;-30
2023/01/29 07:40:31;;;;;;;30.50;20.02;;;;;;;4.32;100.00;100535.63;5051982;28;20561;-28
2023/01/29 07:42:58;;;;;;;18.88;10.68;;;;;;;4.30;100.00;100538.44;5070014;28;20024;-29
2023/01/29 07:45:24;;;;;;;18.00;11.18;;;;;;;4.37;100.00;100536.78;5051746;28;20385;-31
2023/01/29 07:47:54;;;;;;;32.63;19.58;;;;;;;4.38;100.00;100535.78;5051874;28;20021;-29
2023/01/29 07:50:20;;;;;;;26.23;17.80;;;;;;;4.57;99.46;100513.47;5051590;28;20036;-31
2023/01/29 07:52:45;;;;;;;18.55;10.88;;;;;;;4.62;99.94;100526.19;5069839;28;20029;-37
2023/01/29 07:55:11;;;;;;;49.90;27.75;;;;;;;4.69;100.00;100540.34;5070037;28;20021;-28
2023/01/29 07:57:36;;;;;;;20.52;12.82;;;;;;;4.63;99.76;100546.31;5069937;28;20117;-29
2023/01/29 08:00:02;;;;;;;15.43;9.40;;;;;;;4.38;100.00;100551.63;5069551;28;20024;-33
2023/01/29 08:02:27;;;;;;;29.00;22.23;;;;;;;4.34;100.00;100534.47;5069564;28;20028;-29
2023/01/29 08:04:53;;;;;;;22.38;15.32;;;;;;;4.50;100.00;100548.66;5069231;28;20077;-30
2023/01/29 08:07:18;;;;;;;47.13;41.08;;;;;;;4.42;100.00;100531.00;5069791;28;20570;-29
2023/01/29 08:09:44;;;;;;;15.57;10.18;;;;;;;4.61;100.00;100550.94;5077691;28;20024;-32
2023/01/29 08:12:09;;;;;;;16.23;9.32;;;;;;;4.74;100.00;100559.19;5067448;28;20039;-29
2023/01/29 08:14:34;;;;;;;16.88;9.13;;;;;;;4.65;100.00;100557.53;5068784;28;20043;-32
2023/01/29 08:17:00;;;;;;;19.70;11.00;;;;;;;4.71;100.00;100556.84;5071506;28;20113;-30
2023/01/29 08:19:25;;;;;;;14.70;8.82;;;;;;;4.83;100.00;100552.88;5075706;28;20039;-30
2023/01/29 08:21:51;;;;;;;13.32;8.10;;;;;;;4.83;99.04;100555.50;5067244;28;20028;-32
2023/01/29 08:24:16;;;;;;;14.23;8.23;;;;;;;4.80;100.00;100563.78;5068812;28;20094;-30
2023/01/29 08:26:42;;;;;;;13.48;8.07;;;;;;;4.84;99.83;100551.03;5068720;28;20056;-30
2023/01/29 08:29:07;;;;;;;15.07;8.10;;;;;;;4.76;100.00;100541.34;5068474;28;20465;-29
2023/01/29 08:31:33;;;;;;;14.30;7.93;;;;;;;4.96;98.61;100564.72;5068264;28;20031;-31
2023/01/29 08:33:59;;;;;;;15.13;7.43;;;;;;;4.95;98.56;100573.66;5068350;28;20112;-30
2023/01/29 08:36:24;;;;;;;14.75;8.45;;;;;;;4.77;100.00;100556.19;5068370;28;20051;-34
2023/01/29 08:38:50;;;;;;;41.50;20.70;;;;;;;5.19;100.00;100575.38;5049525;28;20037;-30
2023/01/29 08:41:15;;;;;;;23.40;13.15;;;;;;;5.36;99.44;100576.16;5076419;28;20035;-30
2023/01/29 08:43:41;;;;;;;15.02;9.13;;;;;;;5.24;96.77;100581.81;5086729;28;20431;-30
2023/01/29 08:46:07;;;;;;;16.55;10.27;;;;;;;4.98;98.12;100563.56;5088054;28;20507;-30
2023/01/29 08:48:32;;;;;;;15.45;8.90;;;;;;;5.15;96.55;100580.22;5069455;28;20028;-31
2023/01/29 08:51:00;;;;;;;18.83;14.27;;;;;;;4.97;96.76;100577.78;5088217;28;20031;-29
2023/01/29 08:53:25;;;;;;;15.82;10.07;;;;;;;5.06;96.52;100586.50;5087745;28;20028;-32
2023/01/29 08:55:51;;;;;;;15.50;9.30;;;;;;;5.12;96.56;100588.47;5083919;28;20115;-30
2023/01/29 08:58:17;;;;;;;18.95;13.57;;;;;;;5.38;96.23;100590.03;5086397;28;20475;-30
2023/01/29 09:00:42;;;;;;;19.70;13.68;;;;;;;5.32;95.33;100574.84;5087799;28;20039;-30
2023/01/29 09:03:08;;;;;;;14.20;8.88;;;;;;;5.41;95.57;100589.69;5088068;28;20035;-30
2023/01/29 09:05:36;;;;;;;15.77;9.02;;;;;;;5.24;95.60;100583.63;5081722;28;20128;-29
2023/01/29 09:08:02;;;;;;;16.37;9.23;;;;;;;5.20;97.01;100583.16;5073868;28;20033;-29
2023/01/29 09:10:27;;;;;;;14.13;7.75;;;;;;;5.13;94.43;100547.81;5067912;28;20301;-37
2023/01/29 09:12:53;;;;;;;13.55;7.75;;;;;;;5.00;95.71;100561.56;5050015;28;20024;-30
2023/01/29 09:15:18;;;;;;;15.15;8.75;;;;;;;5.09;94.34;100580.03;5049348;28;20036;-33
2023/01/29 09:17:44;;;;;;;16.85;10.93;;;;;;;4.94;95.64;100540.28;5073875;28;20096;-30
2023/01/29 09:20:10;;;;;;;16.52;9.50;;;;;;;5.38;95.90;100576.81;5086823;28;20035;-30
2023/01/29 09:22:35;;;;;;;23.27;19.35;;;;;;;5.61;94.47;100580.31;5069918;28;20024;-30
2023/01/29 09:25:01;;;;;;;31.10;21.42;;;;;;;5.50;95.59;100550.81;5088334;28;20403;-30
2023/01/29 09:27:27;;;;;;;14.07;8.65;;;;;;;5.93;91.94;100575.84;5087786;28;20476;-30
2023/01/29 09:29:52;;;;;;;23.08;13.07;;;;;;;5.98;93.25;100560.25;5069720;28;20556;-30
2023/01/29 09:32:17;;;;;;;17.10;10.48;;;;;;;6.08;92.46;100570.63;5069775;28;20820;-30
2023/01/29 09:34:43;;;;;;;15.80;10.27;;;;;;;5.91;92.68;100575.19;5087838;28;20035;-29
2023/01/29 09:37:08;;;;;;;16.08;10.52;;;;;;;5.90;91.99;100575.34;5087503;28;20577;-33
2023/01/29 09:39:34;;;;;;;14.20;8.27;;;;;;;5.98;91.24;100570.84;5087707;28;20062;-30
2023/01/29 09:42:11;;;;;;;18.75;12.13;;;;;;;5.95;91.59;100555.34;5069763;28;20028;-32
2023/01/29 09:45:23;;;;;;;15.15;8.57;;;;;;;6.19;90.63;100570.22;5088132;28;20509;-30
2023/01/29 09:47:49;;;;;;;14.27;9.00;;;;;;;6.17;91.62;100566.09;5066431;28;20047;-29
2023/01/29 09:50:38;;;;;;;17.70;10.27;;;;;;;6.04;90.49;100567.50;5088837;28;20032;-30
2023/01/29 09:53:19;;;;;;;19.90;12.85;;;;;;;6.19;91.83;100566.72;5091461;28;20119;-30
2023/01/29 09:55:50;;;;;;;21.13;12.20;;;;;;;6.16;92.41;100567.09;5087740;28;20060;-31
2023/01/29 09:58:31;;;;;;;27.23;14.18;;;;;;;5.88;92.16;100543.75;5089116;28;20028;-31
2023/01/29 10:01:23;;;;;;;38.33;28.80;;;;;;;5.97;91.40;100561.28;5065085;28;20028;-33
2023/01/29 10:04:10;;;;;;;25.00;17.42;;;;;;;6.04;92.53;100561.38;5086542;28;20028;-31
2023/01/29 10:06:57;;;;;;;14.68;10.00;;;;;;;6.07;89.79;100568.16;5072896;28;20020;-31
2023/01/29 10:09:59;;;;;;;14.02;8.60;;;;;;;6.12;91.16;100565.81;5089277;28;20028;-33
2023/01/29 10:12:46;;;;;;;19.67;9.30;;;;;;;12.61;92.85;100568.19;5090175;28;20031;-30
2023/01/29 10:15:37;;;;;;;52.65;22.65;;;;;;;8.31;84.87;100557.16;5090728;28;20031;-30
2023/01/29 10:18:33;;;;;;;29.08;13.98;;;;;;;7.93;93.17;100552.16;5089024;28;20024;-29
2023/01/29 10:21:10;;;;;;;26.55;13.38;;;;;;;7.83;93.78;100554.28;5088887;28;20084;-30
2023/01/29 10:23:40;;;;;;;34.65;16.75;;;;;;;8.37;96.73;100540.47;5088269;28;20020;-30
2023/01/29 10:26:11;;;;;;;49.97;19.50;;;;;;;6.36;88.95;100499.38;5072294;28;20024;-30
2023/01/29 10:28:49;;;;;;;26.92;13.98;;;;;;;6.48;94.38;100534.22;5088313;28;20039;-29
2023/01/29 10:31:15;;;;;;;36.60;15.80;;;;;;;6.23;94.01;100533.59;5087944;28;20770;-30
2023/01/29 10:33:47;;;;;;;19.92;12.50;;;;;;;6.17;96.99;100527.22;5090719;28;20020;-31
2023/01/29 10:36:25;;;;;;;29.17;15.93;;;;;;;6.03;95.46;100502.31;5064584;28;20032;-32
2023/01/29 10:38:51;;;;;;;;;;;;;;;5.92;98.79;100525.72;5071835;28;20142;-30
2023/01/29 10:41:41;;;;;;;29.30;18.88;;;;;;;5.46;99.78;100510.66;5071094;28;19962;-32
2023/01/29 10:44:21;;;;;;;34.83;22.88;;;;;;;5.69;100.00;100518.59;5071528;28;20025;-30
2023/01/29 10:47:25;;;;;;;43.20;35.30;;;;;;;5.37;98.94;100520.47;5084230;28;20032;-31
2023/01/29 10:50:22;;;;;;;26.80;16.92;;;;;;;5.38;100.00;100522.09;5055308;28;20039;-34
2023/01/29 10:53:21;;;;;;;34.33;20.48;;;;;;;5.60;100.00;100515.19;5078466;28;20028;-30
2023/01/29 10:55:59;;;;;;;24.17;15.70;;;;;;;5.15;100.00;100508.81;5071576;28;20787;-34
2023/01/29 10:58:24;;;;;;;21.63;14.65;;;;;;;4.84;100.00;100503.47;5087561;28;20047;-30
2023/01/29 11:00:50;;;;;;;28.95;19.02;;;;;;;4.99;100.00;100506.25;5085166;28;20400;-30
2023/01/29 11:03:17;;;;;;;20.73;12.27;;;;;;;4.87;100.00;100510.25;5088812;28;20019;-30
2023/01/29 11:05:53;;;;;;;45.10;27.23;;;;;;;5.19;100.00;100501.34;5087297;28;20032;-30
2023/01/29 11:08:22;;;;;;;31.45;20.30;;;;;;;5.25;100.00;100492.75;5071384;28;20046;-29
2023/01/29 11:11:00;;;;;;;46.47;33.30;;;;;;;5.75;100.00;100496.72;5089831;28;20024;-32
2023/01/29 11:13:31;;;;;;;28.00;18.25;;;;;;;5.66;100.00;100491.66;5087122;28;20030;-32
2023/01/29 11:15:56;;;;;;;21.02;13.63;;;;;;;5.44;97.52;100496.78;5089735;28;20472;-28
2023/01/29 11:18:22;;;;;;;36.63;28.48;;;;;;;5.29;100.00;100490.56;5089412;28;20103;-29
2023/01/29 11:21:01;;;;;;;32.05;22.70;;;;;;;5.59;98.85;100487.06;5089595;28;20039;-29
2023/01/29 11:23:31;;;;;;;22.23;14.20;;;;;;;5.09;100.00;100490.16;5064369;28;20016;-30
2023/01/29 11:25:58;;;;;;;30.52;20.60;;;;;;;5.22;100.00;100485.16;5068946;28;20470;-33
2023/01/29 11:28:41;;;;;;;32.25;21.63;;;;;;;4.80;100.00;100463.38;5069126;28;20027;-31
2023/01/29 11:31:25;;;;;;;22.92;15.25;;;;;;;5.23;100.00;100482.34;5060880;28;20071;-29
2023/01/29 11:34:19;;;;;;;29.67;18.10;;;;;;;4.91;100.00;100471.94;5052240;28;20568;-31
2023/01/29 11:36:45;;;;;;;22.00;14.00;;;;;;;4.78;100.00;100478.59;5070024;28;20412;-29
2023/01/29 11:39:22;;;;;;;20.60;11.82;;;;;;;4.46;100.00;100460.19;5070006;28;20033;-30
2023/01/29 11:42:03;;;;;;;28.77;16.45;;;;;;;4.76;100.00;100467.34;5069012;28;20032;-33
2023/01/29 11:44:28;;;;;;;23.88;14.30;;;;;;;4.86;100.00;100438.06;5052322;28;20036;-30
2023/01/29 11:46:58;;;;;;;16.17;9.50;;;;;;;4.57;100.00;100454.53;5070043;28;20032;-29
2023/01/29 11:49:34;;;;;;;27.60;18.13;;;;;;;4.86;100.00;100466.31;5069613;28;20051;-33
2023/01/29 11:52:03;;;;;;;20.55;12.10;;;;;;;4.78;100.00;100457.44;5069719;28;20028;-29
2023/01/29 11:54:42;;;;;;;16.98;11.45;;;;;;;4.59;100.00;100463.09;5069823;28;20024;-29
2023/01/29 11:57:26;;;;;;;111.22;89.05;;;;;;;4.80;100.00;100460.75;5069953;28;20035;-28
2023/01/29 11:59:54;;;;;;;34.70;23.25;;;;;;;4.73;100.00;100467.69;5079504;28;20511;-29
2023/01/29 12:02:30;;;;;;;35.53;22.10;;;;;;;4.87;100.00;100466.16;5069519;28;20492;-28
2023/01/29 12:04:59;;;;;;;125.25;62.47;;;;;;;4.86;100.00;100439.88;5051726;28;20263;-28